createdAt,value
2023-05-05T00:03:24.222Z,3.50
2023-05-05T00:09:09.032Z,4.00
2023-05-05T00:14:56.938Z,3.40
2023-05-05T00:20:57.568Z,3.88
2023-05-05T00:26:17.614Z,4.85
2023-05-05T00:31:42.830Z,5.28
2023-05-05T00:37:07.485Z,5.68
2023-05-05T00:54:22.435Z,5.65
2023-05-05T01:06:34.726Z,3.33
2023-05-05T01:12:43.805Z,3.38
2023-05-05T01:19:18.645Z,2.92
2023-05-05T01:24:56.469Z,3.08
2023-05-05T01:30:44.678Z,2.45
2023-05-05T01:41:58.153Z,2.80
2023-05-05T01:47:35.893Z,2.35
2023-05-05T01:53:33.338Z,2.83
2023-05-05T01:59:46.024Z,2.95
2023-05-05T02:05:06.608Z,3.35
2023-05-05T02:10:48.021Z,7.07
2023-05-05T02:16:33.255Z,9.73
2023-05-05T02:27:36.653Z,4.80
2023-05-05T02:33:16.991Z,5.47
2023-05-05T02:38:49.125Z,5.80
2023-05-05T02:50:29.601Z,6.30
2023-05-05T02:56:10.346Z,6.57
2023-05-05T03:02:17.452Z,6.47
2023-05-05T03:08:19.860Z,5.97
2023-05-05T03:13:42.448Z,5.97
2023-05-05T03:19:01.737Z,5.97
2023-05-05T03:24:28.033Z,6.57
2023-05-05T03:30:13.143Z,5.90
2023-05-05T03:36:18.203Z,7.38
2023-05-05T03:42:03.370Z,8.35
2023-05-05T03:47:51.675Z,8.80
2023-05-05T03:53:33.255Z,7.90
2023-05-05T03:59:43.576Z,7.88
2023-05-05T04:05:50.834Z,8.32
2023-05-05T04:16:49.986Z,7.50
2023-05-05T04:22:39.024Z,6.40
2023-05-05T04:28:16.073Z,6.53
2023-05-05T04:34:08.774Z,7.45
2023-05-05T04:45:36.444Z,7.18
2023-05-05T05:08:15.557Z,6.90
2023-05-05T05:19:15.754Z,7.60
2023-05-05T05:31:04.327Z,6.68
2023-05-05T05:42:22.796Z,8.02
2023-05-05T05:48:09.904Z,5.93
2023-05-05T05:53:20.132Z,6.45
2023-05-05T05:58:33.525Z,5.70
2023-05-05T06:04:19.436Z,5.07
2023-05-05T06:15:42.557Z,3.63
2023-05-05T06:20:49.467Z,3.22
2023-05-05T06:25:52.036Z,3.88
2023-05-05T06:30:54.081Z,3.35
2023-05-05T06:35:56.185Z,3.80
2023-05-05T06:40:58.876Z,3.30
2023-05-05T06:46:01.135Z,3.80
2023-05-05T06:51:04.106Z,3.63
2023-05-05T06:56:06.264Z,3.20
2023-05-05T07:01:08.794Z,4.13
2023-05-05T07:06:11.537Z,4.10
2023-05-05T07:11:13.673Z,3.30
2023-05-05T07:16:15.894Z,3.17
2023-05-05T07:21:18.180Z,3.13
2023-05-05T07:26:20.397Z,3.40
2023-05-05T07:31:22.538Z,3.25
2023-05-05T07:36:24.684Z,3.33
2023-05-05T07:41:26.771Z,3.13
2023-05-05T07:46:28.887Z,2.78
2023-05-05T07:51:34.413Z,4.15
2023-05-05T07:56:36.971Z,3.25
2023-05-05T08:01:39.457Z,3.08
2023-05-05T08:06:41.570Z,3.47
2023-05-05T08:11:43.591Z,2.75
2023-05-05T08:16:48.387Z,2.67
2023-05-05T08:21:50.689Z,2.80
2023-05-05T08:26:53.771Z,3.42
2023-05-05T08:31:55.952Z,3.25
2023-05-05T08:36:58.172Z,3.20
2023-05-05T08:42:00.347Z,3.00
2023-05-05T08:47:02.826Z,2.65
2023-05-05T08:52:05.690Z,2.63
2023-05-05T08:57:10.183Z,3.15
2023-05-05T09:02:13.345Z,3.00
2023-05-05T09:07:15.684Z,2.80
2023-05-05T09:12:19.031Z,3.25
2023-05-05T09:17:30.924Z,3.20
2023-05-05T09:22:44.689Z,3.20
2023-05-05T09:28:23.613Z,3.38
2023-05-05T09:34:30.962Z,3.00
2023-05-05T09:40:24.142Z,2.30
2023-05-05T09:45:42.192Z,3.15
2023-05-05T09:51:03.133Z,3.50
2023-05-05T09:56:35.946Z,2.85
2023-05-05T10:08:55.604Z,3.13
2023-05-05T10:20:46.572Z,2.70
2023-05-05T10:26:24.934Z,3.15
2023-05-05T10:38:08.940Z,3.55
2023-05-05T10:43:52.220Z,2.13
2023-05-05T10:49:32.525Z,2.25
2023-05-05T10:55:02.777Z,2.78
2023-05-05T11:06:32.496Z,2.08
2023-05-05T11:23:24.159Z,1.73
2023-05-05T11:28:35.633Z,2.42
2023-05-05T11:33:40.766Z,1.83
2023-05-05T11:38:46.007Z,2.22
2023-05-05T11:43:48.165Z,1.85
2023-05-05T11:48:51.984Z,2.05
2023-05-05T11:53:54.264Z,2.38
2023-05-05T11:59:09.891Z,2.47
2023-05-05T12:04:13.512Z,2.65
2023-05-05T12:09:16.381Z,1.90
2023-05-05T12:14:18.884Z,2.53
2023-05-05T12:19:21.106Z,2.28
2023-05-05T12:24:23.522Z,2.92
2023-05-05T12:29:27.154Z,2.42
2023-05-05T12:34:29.367Z,1.95
2023-05-05T12:39:35.748Z,1.92
2023-05-05T12:44:38.917Z,2.00
2023-05-05T12:49:51.029Z,1.83
2023-05-05T12:54:57.406Z,2.60
2023-05-05T13:00:12.725Z,1.73
2023-05-05T13:05:14.987Z,1.73
2023-05-05T13:10:17.143Z,1.95
2023-05-05T13:15:19.280Z,2.05
2023-05-05T13:20:21.552Z,2.17
2023-05-05T13:25:24.289Z,1.40
2023-05-05T13:30:26.502Z,2.05
2023-05-05T13:35:28.653Z,2.10
2023-05-05T13:40:31.068Z,2.03
2023-05-05T13:45:33.844Z,1.67
2023-05-05T13:50:36.008Z,2.10
2023-05-05T13:55:38.320Z,2.38
2023-05-05T14:00:40.854Z,2.47
2023-05-05T14:05:43.134Z,1.60
2023-05-05T14:10:47.392Z,2.05
2023-05-05T14:15:50.967Z,2.17
2023-05-05T14:20:53.077Z,1.65
2023-05-05T14:25:55.310Z,1.85
2023-05-05T14:30:57.498Z,1.85
2023-05-05T14:36:00.190Z,2.25
2023-05-05T14:41:02.424Z,1.75
2023-05-05T14:46:07.028Z,2.05
2023-05-05T14:51:09.398Z,2.92
2023-05-05T14:56:11.570Z,2.70
2023-05-05T15:01:13.769Z,2.55
2023-05-05T15:06:16.785Z,2.63
2023-05-05T15:11:18.896Z,2.25
2023-05-05T15:16:21.489Z,19.08
2023-05-05T15:21:23.697Z,2.88
2023-05-05T15:26:26.937Z,2.22
2023-05-05T15:31:29.113Z,2.70
2023-05-05T15:36:32.536Z,2.53
2023-05-05T15:41:34.861Z,2.22
2023-05-05T15:46:37.003Z,2.70
2023-05-05T15:51:39.197Z,2.47
2023-05-05T15:56:41.511Z,3.00
2023-05-05T16:01:43.683Z,3.40
2023-05-05T16:06:45.889Z,2.92
2023-05-05T16:11:48.065Z,3.03
2023-05-05T16:16:50.274Z,2.85
2023-05-05T16:21:53.093Z,3.53
2023-05-05T16:26:55.414Z,3.47
2023-05-05T16:31:57.652Z,3.50
2023-05-05T16:36:59.957Z,3.55
2023-05-05T16:42:03.087Z,4.05
2023-05-05T16:47:05.402Z,3.55
2023-05-05T16:52:07.649Z,4.22
2023-05-05T16:57:10.062Z,3.75
2023-05-05T17:02:12.260Z,3.50
2023-05-05T17:07:14.395Z,3.60
2023-05-05T17:12:16.687Z,4.32
2023-05-05T17:17:18.871Z,3.90
2023-05-05T17:22:21.053Z,4.30
2023-05-05T17:27:23.340Z,4.35
2023-05-05T17:32:25.604Z,3.70
2023-05-05T17:37:27.891Z,4.22
2023-05-05T17:42:33.256Z,4.43
2023-05-05T17:47:35.442Z,4.72
2023-05-05T17:52:37.558Z,4.82
2023-05-05T17:57:40.034Z,4.95
2023-05-05T18:02:42.395Z,5.10
2023-05-05T18:07:44.742Z,5.25
2023-05-05T18:12:47.215Z,5.63
2023-05-05T18:17:49.723Z,5.25
2023-05-05T18:22:52.616Z,5.63
2023-05-05T18:27:54.883Z,7.05
2023-05-05T18:32:57.051Z,7.35
2023-05-05T18:37:59.226Z,6.55
2023-05-05T18:43:01.509Z,7.60
2023-05-05T18:48:04.792Z,7.65
2023-05-05T18:53:06.922Z,7.70
2023-05-05T18:58:09.596Z,6.60
2023-05-05T19:03:12.070Z,7.93
2023-05-05T19:08:14.283Z,7.68
2023-05-05T19:13:16.649Z,8.80
2023-05-05T19:18:19.071Z,8.98
2023-05-05T19:23:21.502Z,12.00
2023-05-05T19:28:23.875Z,14.43
2023-05-05T19:33:26.118Z,25.42
2023-05-05T19:38:29.452Z,25.50
2023-05-05T19:43:31.636Z,22.10
2023-05-05T19:48:33.967Z,21.45
2023-05-05T19:53:36.669Z,18.13
2023-05-05T19:58:58.083Z,22.10
2023-05-05T20:04:00.614Z,20.17
2023-05-05T20:09:03.042Z,18.77
2023-05-05T20:14:05.335Z,18.67
2023-05-05T20:19:07.511Z,18.80
2023-05-05T20:24:09.838Z,14.65
2023-05-05T20:29:12.026Z,15.93
2023-05-05T20:34:14.609Z,16.95
2023-05-05T20:39:16.830Z,13.63
2023-05-05T20:44:19.053Z,16.02
2023-05-05T20:49:21.254Z,15.23
2023-05-05T20:54:23.422Z,16.80
2023-05-05T20:59:28.140Z,15.27
2023-05-05T21:04:30.264Z,17.55
2023-05-05T21:09:32.472Z,15.68
2023-05-05T21:14:34.596Z,11.90
2023-05-05T21:19:36.757Z,14.02
2023-05-05T21:24:39.162Z,15.15
2023-05-05T21:29:41.416Z,13.75
2023-05-05T21:34:43.542Z,14.18
2023-05-05T21:39:45.696Z,14.05
2023-05-05T21:44:47.871Z,12.07
2023-05-05T21:49:50.050Z,13.63
2023-05-05T21:54:52.212Z,13.02
2023-05-05T21:59:54.399Z,13.20
2023-05-05T22:04:56.640Z,12.40
2023-05-05T22:09:58.893Z,12.48
2023-05-05T22:15:01.158Z,11.77
2023-05-05T22:20:06.484Z,12.32
2023-05-05T22:25:09.321Z,12.18
2023-05-05T22:30:12.081Z,11.15
2023-05-05T22:35:14.402Z,12.18
2023-05-05T22:40:16.744Z,11.88
2023-05-05T22:45:20.035Z,11.80
2023-05-05T22:50:22.224Z,12.48
2023-05-05T22:55:25.413Z,11.80
2023-05-05T23:00:28.615Z,11.18
2023-05-05T23:05:30.959Z,11.35
2023-05-05T23:10:33.194Z,10.15
2023-05-05T23:15:35.471Z,12.13
2023-05-05T23:20:37.866Z,10.82
2023-05-05T23:25:40.058Z,11.18
2023-05-05T23:30:42.365Z,9.40
2023-05-05T23:35:45.874Z,10.50
2023-05-05T23:40:48.131Z,9.98
2023-05-05T23:45:50.329Z,8.60
2023-05-05T23:50:52.882Z,12.18
2023-05-05T23:55:55.093Z,12.57
